Авиационная погода в Куусамо

СКИДКИ НА СМАРТФОНЫ!

Регион: 
Погода METAR: 
EFKS 091220Z AUTO 23012KT 200V260 9999 BKN048 18/06 Q1023
Время наблюдения
2022-08-09T12:20:00Z
Температура C
18.0
Точка росы
6.0
Направление ветра
230
Скорость ветра (узлы)
12
Метео видимость
6.21
Облачность
BKN
Нижняя граница облачности (футы)
4800
Явления погоды
Условия полета
VFR
BKN – значительная (рассеянная, разорванная) облачность;

Скидки на навигаторы!